sensor_id;sensor_type;location;lat;lon;timestamp;P1;durP1;ratioP1;P2;durP2;ratioP2
4148;SDS011;2088;51.032;7.082;2023-12-14T00:00:33;10.93;;;3.90;;
4148;SDS011;2088;51.032;7.082;2023-12-14T00:03:00;14.80;;;5.80;;
4148;SDS011;2088;51.032;7.082;2023-12-14T00:05:27;13.20;;;6.47;;
4148;SDS011;2088;51.032;7.082;2023-12-14T00:07:54;14.97;;;5.53;;
4148;SDS011;2088;51.032;7.082;2023-12-14T00:10:21;10.40;;;5.73;;
4148;SDS011;2088;51.032;7.082;2023-12-14T00:12:48;10.93;;;5.87;;
4148;SDS011;2088;51.032;7.082;2023-12-14T00:15:17;12.47;;;5.60;;
4148;SDS011;2088;51.032;7.082;2023-12-14T00:17:44;11.30;;;6.03;;
4148;SDS011;2088;51.032;7.082;2023-12-14T00:20:11;16.33;;;5.40;;
4148;SDS011;2088;51.032;7.082;2023-12-14T00:22:39;8.93;;;5.80;;
4148;SDS011;2088;51.032;7.082;2023-12-14T00:25:07;7.90;;;5.00;;
4148;SDS011;2088;51.032;7.082;2023-12-14T00:27:34;10.67;;;6.07;;
4148;SDS011;2088;51.032;7.082;2023-12-14T00:30:01;13.37;;;6.77;;
4148;SDS011;2088;51.032;7.082;2023-12-14T00:32:29;17.83;;;6.13;;
4148;SDS011;2088;51.032;7.082;2023-12-14T00:34:56;11.13;;;6.70;;
4148;SDS011;2088;51.032;7.082;2023-12-14T00:37:23;11.70;;;4.87;;
4148;SDS011;2088;51.032;7.082;2023-12-14T00:39:50;24.13;;;5.53;;
4148;SDS011;2088;51.032;7.082;2023-12-14T00:42:17;10.80;;;6.27;;
4148;SDS011;2088;51.032;7.082;2023-12-14T00:44:44;14.97;;;6.83;;
4148;SDS011;2088;51.032;7.082;2023-12-14T00:47:11;19.43;;;8.53;;
4148;SDS011;2088;51.032;7.082;2023-12-14T00:49:40;15.40;;;7.00;;
4148;SDS011;2088;51.032;7.082;2023-12-14T00:52:07;12.30;;;6.90;;
4148;SDS011;2088;51.032;7.082;2023-12-14T00:54:34;15.40;;;6.50;;
4148;SDS011;2088;51.032;7.082;2023-12-14T00:57:01;13.20;;;7.27;;
4148;SDS011;2088;51.032;7.082;2023-12-14T00:59:28;16.13;;;7.60;;
4148;SDS011;2088;51.032;7.082;2023-12-14T01:01:55;14.93;;;6.80;;
4148;SDS011;2088;51.032;7.082;2023-12-14T01:04:22;13.80;;;8.37;;
4148;SDS011;2088;51.032;7.082;2023-12-14T01:06:51;12.30;;;6.83;;
4148;SDS011;2088;51.032;7.082;2023-12-14T01:09:18;17.77;;;9.17;;
4148;SDS011;2088;51.032;7.082;2023-12-14T01:11:45;16.60;;;7.20;;
4148;SDS011;2088;51.032;7.082;2023-12-14T01:14:12;21.67;;;8.93;;
4148;SDS011;2088;51.032;7.082;2023-12-14T01:16:39;13.20;;;7.30;;
4148;SDS011;2088;51.032;7.082;2023-12-14T01:19:06;18.27;;;7.50;;
4148;SDS011;2088;51.032;7.082;2023-12-14T01:21:33;16.27;;;7.00;;
4148;SDS011;2088;51.032;7.082;2023-12-14T01:24:01;14.13;;;7.87;;
4148;SDS011;2088;51.032;7.082;2023-12-14T01:26:28;13.80;;;7.73;;
4148;SDS011;2088;51.032;7.082;2023-12-14T01:28:55;21.67;;;7.57;;
4148;SDS011;2088;51.032;7.082;2023-12-14T01:31:24;15.83;;;8.00;;
4148;SDS011;2088;51.032;7.082;2023-12-14T01:33:51;14.57;;;7.87;;
4148;SDS011;2088;51.032;7.082;2023-12-14T01:36:21;16.37;;;8.83;;
4148;SDS011;2088;51.032;7.082;2023-12-14T01:38:48;14.73;;;8.30;;
4148;SDS011;2088;51.032;7.082;2023-12-14T01:41:16;18.93;;;7.87;;
4148;SDS011;2088;51.032;7.082;2023-12-14T01:43:43;16.40;;;8.67;;
4148;SDS011;2088;51.032;7.082;2023-12-14T01:46:11;14.93;;;8.97;;
4148;SDS011;2088;51.032;7.082;2023-12-14T01:48:40;14.63;;;7.67;;
4148;SDS011;2088;51.032;7.082;2023-12-14T01:51:07;16.07;;;8.27;;
4148;SDS011;2088;51.032;7.082;2023-12-14T01:53:34;21.10;;;7.40;;
4148;SDS011;2088;51.032;7.082;2023-12-14T01:56:01;20.13;;;8.67;;
4148;SDS011;2088;51.032;7.082;2023-12-14T01:58:29;15.40;;;6.90;;
4148;SDS011;2088;51.032;7.082;2023-12-14T02:00:57;14.83;;;7.20;;
4148;SDS011;2088;51.032;7.082;2023-12-14T02:03:27;17.37;;;6.90;;
4148;SDS011;2088;51.032;7.082;2023-12-14T02:05:54;23.73;;;9.90;;
4148;SDS011;2088;51.032;7.082;2023-12-14T02:08:23;17.30;;;8.40;;
4148;SDS011;2088;51.032;7.082;2023-12-14T02:10:50;20.80;;;8.63;;
4148;SDS011;2088;51.032;7.082;2023-12-14T02:13:17;18.33;;;8.70;;
4148;SDS011;2088;51.032;7.082;2023-12-14T02:15:46;22.40;;;10.17;;
4148;SDS011;2088;51.032;7.082;2023-12-14T02:18:13;23.90;;;9.27;;
4148;SDS011;2088;51.032;7.082;2023-12-14T02:20:40;23.40;;;8.97;;
4148;SDS011;2088;51.032;7.082;2023-12-14T02:23:08;20.27;;;8.07;;
4148;SDS011;2088;51.032;7.082;2023-12-14T02:25:35;28.80;;;10.23;;
4148;SDS011;2088;51.032;7.082;2023-12-14T02:28:02;20.07;;;8.73;;
4148;SDS011;2088;51.032;7.082;2023-12-14T02:30:29;20.37;;;9.33;;
4148;SDS011;2088;51.032;7.082;2023-12-14T02:32:56;25.93;;;10.37;;
4148;SDS011;2088;51.032;7.082;2023-12-14T02:35:23;30.77;;;10.60;;
4148;SDS011;2088;51.032;7.082;2023-12-14T02:37:50;23.90;;;10.97;;
4148;SDS011;2088;51.032;7.082;2023-12-14T02:40:19;35.90;;;10.83;;
4148;SDS011;2088;51.032;7.082;2023-12-14T02:42:46;34.90;;;11.30;;
4148;SDS011;2088;51.032;7.082;2023-12-14T02:45:13;19.70;;;8.17;;
4148;SDS011;2088;51.032;7.082;2023-12-14T02:47:40;31.80;;;9.27;;
4148;SDS011;2088;51.032;7.082;2023-12-14T02:50:07;28.17;;;8.30;;
4148;SDS011;2088;51.032;7.082;2023-12-14T02:52:34;22.87;;;8.90;;
4148;SDS011;2088;51.032;7.082;2023-12-14T02:55:01;23.00;;;8.50;;
4148;SDS011;2088;51.032;7.082;2023-12-14T02:57:30;16.80;;;6.80;;
4148;SDS011;2088;51.032;7.082;2023-12-14T02:59:57;29.13;;;7.50;;
4148;SDS011;2088;51.032;7.082;2023-12-14T03:02:24;20.13;;;7.10;;
4148;SDS011;2088;51.032;7.082;2023-12-14T03:04:51;13.47;;;7.20;;
4148;SDS011;2088;51.032;7.082;2023-12-14T03:07:18;16.00;;;6.70;;
4148;SDS011;2088;51.032;7.082;2023-12-14T03:09:45;21.70;;;8.27;;
4148;SDS011;2088;51.032;7.082;2023-12-14T03:12:12;17.40;;;7.17;;
4148;SDS011;2088;51.032;7.082;2023-12-14T03:14:40;19.00;;;7.37;;
4148;SDS011;2088;51.032;7.082;2023-12-14T03:17:07;27.13;;;9.30;;
4148;SDS011;2088;51.032;7.082;2023-12-14T03:19:37;21.70;;;8.50;;
4148;SDS011;2088;51.032;7.082;2023-12-14T03:22:04;26.70;;;8.70;;
4148;SDS011;2088;51.032;7.082;2023-12-14T03:24:32;15.57;;;8.87;;
4148;SDS011;2088;51.032;7.082;2023-12-14T03:26:59;30.27;;;10.07;;
4148;SDS011;2088;51.032;7.082;2023-12-14T03:29:27;23.97;;;7.90;;
4148;SDS011;2088;51.032;7.082;2023-12-14T03:31:55;20.23;;;8.60;;
4148;SDS011;2088;51.032;7.082;2023-12-14T03:34:22;31.97;;;8.83;;
4148;SDS011;2088;51.032;7.082;2023-12-14T03:36:49;26.23;;;9.43;;
4148;SDS011;2088;51.032;7.082;2023-12-14T03:39:16;20.07;;;8.27;;
4148;SDS011;2088;51.032;7.082;2023-12-14T03:41:44;20.77;;;6.83;;
4148;SDS011;2088;51.032;7.082;2023-12-14T03:44:11;23.03;;;8.97;;
4148;SDS011;2088;51.032;7.082;2023-12-14T03:46:38;15.00;;;6.70;;
4148;SDS011;2088;51.032;7.082;2023-12-14T03:49:06;18.43;;;7.43;;
4148;SDS011;2088;51.032;7.082;2023-12-14T03:51:34;15.30;;;6.33;;
4148;SDS011;2088;51.032;7.082;2023-12-14T03:54:01;18.00;;;7.90;;
4148;SDS011;2088;51.032;7.082;2023-12-14T03:56:28;15.07;;;5.90;;
4148;SDS011;2088;51.032;7.082;2023-12-14T03:58:55;12.80;;;6.97;;
4148;SDS011;2088;51.032;7.082;2023-12-14T04:01:23;17.23;;;6.10;;
4148;SDS011;2088;51.032;7.082;2023-12-14T04:03:50;10.23;;;5.20;;
4148;SDS011;2088;51.032;7.082;2023-12-14T04:06:18;8.03;;;4.17;;
4148;SDS011;2088;51.032;7.082;2023-12-14T04:08:45;10.30;;;5.60;;
4148;SDS011;2088;51.032;7.082;2023-12-14T04:11:12;7.20;;;4.20;;
4148;SDS011;2088;51.032;7.082;2023-12-14T04:13:39;9.87;;;4.50;;
4148;SDS011;2088;51.032;7.082;2023-12-14T04:16:06;8.80;;;3.73;;
4148;SDS011;2088;51.032;7.082;2023-12-14T04:18:34;6.73;;;4.07;;
4148;SDS011;2088;51.032;7.082;2023-12-14T04:21:02;8.57;;;4.90;;
4148;SDS011;2088;51.032;7.082;2023-12-14T04:23:31;6.10;;;3.23;;
4148;SDS011;2088;51.032;7.082;2023-12-14T04:25:58;7.57;;;3.50;;
4148;SDS011;2088;51.032;7.082;2023-12-14T04:28:25;6.57;;;4.27;;
4148;SDS011;2088;51.032;7.082;2023-12-14T04:30:52;7.10;;;4.00;;
4148;SDS011;2088;51.032;7.082;2023-12-14T04:33:19;7.47;;;3.87;;
4148;SDS011;2088;51.032;7.082;2023-12-14T04:35:46;4.77;;;3.10;;
4148;SDS011;2088;51.032;7.082;2023-12-14T04:38:13;10.80;;;3.90;;
4148;SDS011;2088;51.032;7.082;2023-12-14T04:40:41;6.13;;;3.53;;
4148;SDS011;2088;51.032;7.082;2023-12-14T04:43:08;7.33;;;3.63;;
4148;SDS011;2088;51.032;7.082;2023-12-14T04:45:35;16.53;;;5.13;;
4148;SDS011;2088;51.032;7.082;2023-12-14T04:48:02;13.80;;;5.03;;
4148;SDS011;2088;51.032;7.082;2023-12-14T04:50:29;16.03;;;6.87;;
4148;SDS011;2088;51.032;7.082;2023-12-14T04:52:56;13.43;;;5.60;;
4148;SDS011;2088;51.032;7.082;2023-12-14T04:55:23;15.50;;;7.00;;
4148;SDS011;2088;51.032;7.082;2023-12-14T04:57:52;13.77;;;5.60;;
4148;SDS011;2088;51.032;7.082;2023-12-14T05:00:19;13.20;;;8.27;;
4148;SDS011;2088;51.032;7.082;2023-12-14T05:02:46;11.73;;;6.77;;
4148;SDS011;2088;51.032;7.082;2023-12-14T05:05:14;15.90;;;6.60;;
4148;SDS011;2088;51.032;7.082;2023-12-14T05:07:41;16.37;;;7.13;;
4148;SDS011;2088;51.032;7.082;2023-12-14T05:10:08;19.87;;;7.30;;
4148;SDS011;2088;51.032;7.082;2023-12-14T05:12:36;19.87;;;8.60;;
4148;SDS011;2088;51.032;7.082;2023-12-14T05:15:05;21.80;;;8.90;;
4148;SDS011;2088;51.032;7.082;2023-12-14T05:17:33;21.43;;;9.37;;
4148;SDS011;2088;51.032;7.082;2023-12-14T05:20:01;23.03;;;8.90;;
4148;SDS011;2088;51.032;7.082;2023-12-14T05:22:29;24.90;;;8.00;;
4148;SDS011;2088;51.032;7.082;2023-12-14T05:24:56;23.20;;;10.43;;
4148;SDS011;2088;51.032;7.082;2023-12-14T05:27:23;26.67;;;11.00;;
4148;SDS011;2088;51.032;7.082;2023-12-14T05:29:50;25.40;;;12.27;;
4148;SDS011;2088;51.032;7.082;2023-12-14T05:32:18;25.40;;;8.50;;
4148;SDS011;2088;51.032;7.082;2023-12-14T05:34:45;20.93;;;7.93;;
4148;SDS011;2088;51.032;7.082;2023-12-14T05:37:12;23.70;;;7.67;;
4148;SDS011;2088;51.032;7.082;2023-12-14T05:39:40;19.80;;;8.63;;
4148;SDS011;2088;51.032;7.082;2023-12-14T05:42:08;16.97;;;7.60;;
4148;SDS011;2088;51.032;7.082;2023-12-14T05:44:35;17.23;;;7.40;;
4148;SDS011;2088;51.032;7.082;2023-12-14T05:47:02;17.13;;;6.97;;
4148;SDS011;2088;51.032;7.082;2023-12-14T05:49:30;19.70;;;8.03;;
4148;SDS011;2088;51.032;7.082;2023-12-14T05:51:58;21.67;;;8.57;;
4148;SDS011;2088;51.032;7.082;2023-12-14T05:54:25;28.50;;;9.57;;
4148;SDS011;2088;51.032;7.082;2023-12-14T05:56:52;19.10;;;9.47;;
4148;SDS011;2088;51.032;7.082;2023-12-14T05:59:19;16.93;;;7.10;;
4148;SDS011;2088;51.032;7.082;2023-12-14T06:01:46;16.53;;;6.70;;
4148;SDS011;2088;51.032;7.082;2023-12-14T06:04:13;24.73;;;8.50;;
4148;SDS011;2088;51.032;7.082;2023-12-14T06:06:41;22.03;;;9.30;;
4148;SDS011;2088;51.032;7.082;2023-12-14T06:09:08;19.93;;;8.63;;
4148;SDS011;2088;51.032;7.082;2023-12-14T06:11:35;31.77;;;9.40;;
4148;SDS011;2088;51.032;7.082;2023-12-14T06:14:02;22.70;;;9.77;;
4148;SDS011;2088;51.032;7.082;2023-12-14T06:16:30;28.83;;;10.00;;
4148;SDS011;2088;51.032;7.082;2023-12-14T06:18:57;21.20;;;8.33;;
4148;SDS011;2088;51.032;7.082;2023-12-14T06:21:24;19.97;;;8.63;;
4148;SDS011;2088;51.032;7.082;2023-12-14T06:23:55;24.93;;;9.10;;
4148;SDS011;2088;51.032;7.082;2023-12-14T06:26:22;18.97;;;7.93;;
4148;SDS011;2088;51.032;7.082;2023-12-14T06:28:49;18.63;;;9.30;;
4148;SDS011;2088;51.032;7.082;2023-12-14T06:31:17;21.10;;;8.70;;
4148;SDS011;2088;51.032;7.082;2023-12-14T06:33:46;22.73;;;9.10;;
4148;SDS011;2088;51.032;7.082;2023-12-14T06:36:14;19.60;;;7.70;;
4148;SDS011;2088;51.032;7.082;2023-12-14T06:38:42;17.20;;;7.70;;
4148;SDS011;2088;51.032;7.082;2023-12-14T06:41:19;14.20;;;7.50;;
4148;SDS011;2088;51.032;7.082;2023-12-14T06:43:46;28.73;;;10.03;;
4148;SDS011;2088;51.032;7.082;2023-12-14T06:46:13;35.30;;;10.30;;
4148;SDS011;2088;51.032;7.082;2023-12-14T06:48:40;24.50;;;9.63;;
4148;SDS011;2088;51.032;7.082;2023-12-14T06:51:07;27.90;;;10.73;;
4148;SDS011;2088;51.032;7.082;2023-12-14T06:53:34;24.83;;;10.10;;
4148;SDS011;2088;51.032;7.082;2023-12-14T06:56:02;31.80;;;11.23;;
4148;SDS011;2088;51.032;7.082;2023-12-14T06:58:30;28.87;;;12.33;;
4148;SDS011;2088;51.032;7.082;2023-12-14T07:00:57;28.23;;;9.63;;
4148;SDS011;2088;51.032;7.082;2023-12-14T07:03:24;23.00;;;9.13;;
4148;SDS011;2088;51.032;7.082;2023-12-14T07:05:52;22.00;;;9.07;;
4148;SDS011;2088;51.032;7.082;2023-12-14T07:08:19;22.07;;;8.33;;
4148;SDS011;2088;51.032;7.082;2023-12-14T07:10:46;22.30;;;8.00;;
4148;SDS011;2088;51.032;7.082;2023-12-14T07:13:13;19.07;;;8.87;;
4148;SDS011;2088;51.032;7.082;2023-12-14T07:15:41;16.83;;;7.00;;
4148;SDS011;2088;51.032;7.082;2023-12-14T07:18:08;22.07;;;7.37;;
4148;SDS011;2088;51.032;7.082;2023-12-14T07:20:35;18.83;;;8.43;;
4148;SDS011;2088;51.032;7.082;2023-12-14T07:23:02;15.57;;;8.33;;
4148;SDS011;2088;51.032;7.082;2023-12-14T07:25:30;19.47;;;7.70;;
4148;SDS011;2088;51.032;7.082;2023-12-14T07:27:57;21.60;;;8.77;;
4148;SDS011;2088;51.032;7.082;2023-12-14T07:30:24;24.00;;;8.23;;
4148;SDS011;2088;51.032;7.082;2023-12-14T07:32:52;21.97;;;9.47;;
4148;SDS011;2088;51.032;7.082;2023-12-14T07:35:19;17.83;;;7.23;;
4148;SDS011;2088;51.032;7.082;2023-12-14T07:37:46;22.67;;;10.20;;
4148;SDS011;2088;51.032;7.082;2023-12-14T07:40:13;16.60;;;7.87;;
4148;SDS011;2088;51.032;7.082;2023-12-14T07:42:41;18.80;;;9.00;;
4148;SDS011;2088;51.032;7.082;2023-12-14T07:45:08;22.50;;;9.90;;
4148;SDS011;2088;51.032;7.082;2023-12-14T07:47:36;26.50;;;10.50;;
4148;SDS011;2088;51.032;7.082;2023-12-14T07:50:05;24.43;;;9.23;;
4148;SDS011;2088;51.032;7.082;2023-12-14T07:52:32;22.37;;;9.83;;
4148;SDS011;2088;51.032;7.082;2023-12-14T07:54:59;30.27;;;10.90;;
4148;SDS011;2088;51.032;7.082;2023-12-14T07:57:28;22.43;;;9.53;;
4148;SDS011;2088;51.032;7.082;2023-12-14T07:59:55;30.33;;;9.77;;
4148;SDS011;2088;51.032;7.082;2023-12-14T08:02:22;34.23;;;10.70;;
4148;SDS011;2088;51.032;7.082;2023-12-14T08:04:49;24.30;;;10.30;;
4148;SDS011;2088;51.032;7.082;2023-12-14T08:07:17;22.17;;;6.93;;
4148;SDS011;2088;51.032;7.082;2023-12-14T08:09:45;25.37;;;10.20;;
4148;SDS011;2088;51.032;7.082;2023-12-14T08:12:12;24.83;;;10.60;;
4148;SDS011;2088;51.032;7.082;2023-12-14T08:14:39;23.07;;;8.57;;
4148;SDS011;2088;51.032;7.082;2023-12-14T08:17:08;19.30;;;8.17;;
4148;SDS011;2088;51.032;7.082;2023-12-14T08:19:35;19.97;;;8.13;;
4148;SDS011;2088;51.032;7.082;2023-12-14T08:22:03;19.93;;;7.03;;
4148;SDS011;2088;51.032;7.082;2023-12-14T08:24:31;19.70;;;7.07;;
4148;SDS011;2088;51.032;7.082;2023-12-14T08:26:58;22.43;;;7.17;;
4148;SDS011;2088;51.032;7.082;2023-12-14T08:29:25;22.63;;;6.70;;
4148;SDS011;2088;51.032;7.082;2023-12-14T08:31:52;14.27;;;6.73;;
4148;SDS011;2088;51.032;7.082;2023-12-14T08:34:22;14.67;;;5.70;;
4148;SDS011;2088;51.032;7.082;2023-12-14T08:36:49;23.80;;;8.80;;
4148;SDS011;2088;51.032;7.082;2023-12-14T08:39:16;18.53;;;6.43;;
4148;SDS011;2088;51.032;7.082;2023-12-14T08:41:46;21.00;;;6.93;;
4148;SDS011;2088;51.032;7.082;2023-12-14T08:44:13;15.13;;;6.63;;
4148;SDS011;2088;51.032;7.082;2023-12-14T08:46:40;21.83;;;7.80;;
4148;SDS011;2088;51.032;7.082;2023-12-14T08:49:07;14.40;;;6.13;;
4148;SDS011;2088;51.032;7.082;2023-12-14T08:51:34;17.53;;;6.93;;
4148;SDS011;2088;51.032;7.082;2023-12-14T08:54:02;16.00;;;7.50;;
4148;SDS011;2088;51.032;7.082;2023-12-14T08:56:29;19.07;;;6.63;;
4148;SDS011;2088;51.032;7.082;2023-12-14T08:58:57;17.63;;;7.07;;
4148;SDS011;2088;51.032;7.082;2023-12-14T09:01:28;27.77;;;7.90;;
4148;SDS011;2088;51.032;7.082;2023-12-14T09:03:55;25.13;;;7.83;;
4148;SDS011;2088;51.032;7.082;2023-12-14T09:06:22;21.37;;;8.73;;
4148;SDS011;2088;51.032;7.082;2023-12-14T09:08:49;34.40;;;8.53;;
4148;SDS011;2088;51.032;7.082;2023-12-14T09:11:16;33.47;;;9.63;;
4148;SDS011;2088;51.032;7.082;2023-12-14T09:13:43;27.70;;;9.80;;
4148;SDS011;2088;51.032;7.082;2023-12-14T09:16:12;27.77;;;10.80;;
4148;SDS011;2088;51.032;7.082;2023-12-14T09:18:39;22.60;;;8.90;;
4148;SDS011;2088;51.032;7.082;2023-12-14T09:21:07;33.53;;;9.30;;
4148;SDS011;2088;51.032;7.082;2023-12-14T09:23:34;32.07;;;11.33;;
4148;SDS011;2088;51.032;7.082;2023-12-14T09:26:01;31.30;;;10.80;;
4148;SDS011;2088;51.032;7.082;2023-12-14T09:28:28;23.30;;;10.17;;
4148;SDS011;2088;51.032;7.082;2023-12-14T09:30:55;25.33;;;10.17;;
4148;SDS011;2088;51.032;7.082;2023-12-14T09:33:23;35.33;;;11.07;;
4148;SDS011;2088;51.032;7.082;2023-12-14T09:35:50;31.13;;;10.20;;
4148;SDS011;2088;51.032;7.082;2023-12-14T09:38:17;26.93;;;10.47;;
4148;SDS011;2088;51.032;7.082;2023-12-14T09:40:44;29.77;;;10.50;;
4148;SDS011;2088;51.032;7.082;2023-12-14T09:43:12;27.00;;;11.03;;
4148;SDS011;2088;51.032;7.082;2023-12-14T09:45:40;37.73;;;11.83;;
4148;SDS011;2088;51.032;7.082;2023-12-14T09:48:10;32.67;;;9.63;;
4148;SDS011;2088;51.032;7.082;2023-12-14T09:50:39;30.40;;;11.20;;
4148;SDS011;2088;51.032;7.082;2023-12-14T09:53:07;25.93;;;9.33;;
4148;SDS011;2088;51.032;7.082;2023-12-14T09:55:34;27.90;;;11.20;;
4148;SDS011;2088;51.032;7.082;2023-12-14T09:58:01;32.17;;;10.60;;
4148;SDS011;2088;51.032;7.082;2023-12-14T10:00:32;37.73;;;12.03;;
4148;SDS011;2088;51.032;7.082;2023-12-14T10:03:03;29.30;;;9.60;;
4148;SDS011;2088;51.032;7.082;2023-12-14T10:05:45;32.07;;;11.93;;
4148;SDS011;2088;51.032;7.082;2023-12-14T10:08:13;36.17;;;11.20;;
4148;SDS011;2088;51.032;7.082;2023-12-14T10:10:41;29.33;;;10.37;;
4148;SDS011;2088;51.032;7.082;2023-12-14T10:13:08;28.47;;;11.77;;
4148;SDS011;2088;51.032;7.082;2023-12-14T10:15:41;34.40;;;11.00;;
4148;SDS011;2088;51.032;7.082;2023-12-14T10:18:08;31.80;;;11.77;;
4148;SDS011;2088;51.032;7.082;2023-12-14T10:20:36;36.33;;;12.83;;
4148;SDS011;2088;51.032;7.082;2023-12-14T10:23:05;35.00;;;11.80;;
4148;SDS011;2088;51.032;7.082;2023-12-14T10:25:33;35.20;;;10.97;;
4148;SDS011;2088;51.032;7.082;2023-12-14T10:28:00;29.47;;;11.97;;
4148;SDS011;2088;51.032;7.082;2023-12-14T10:30:28;29.77;;;12.33;;
4148;SDS011;2088;51.032;7.082;2023-12-14T10:32:55;44.47;;;14.87;;
4148;SDS011;2088;51.032;7.082;2023-12-14T10:35:23;46.33;;;13.07;;
4148;SDS011;2088;51.032;7.082;2023-12-14T10:37:51;42.60;;;13.80;;
4148;SDS011;2088;51.032;7.082;2023-12-14T10:40:20;43.87;;;14.70;;
4148;SDS011;2088;51.032;7.082;2023-12-14T10:42:47;31.47;;;11.60;;
4148;SDS011;2088;51.032;7.082;2023-12-14T10:45:14;36.00;;;12.83;;
4148;SDS011;2088;51.032;7.082;2023-12-14T10:47:44;33.57;;;10.60;;
4148;SDS011;2088;51.032;7.082;2023-12-14T10:50:11;28.37;;;10.63;;
4148;SDS011;2088;51.032;7.082;2023-12-14T10:52:38;39.77;;;11.50;;
4148;SDS011;2088;51.032;7.082;2023-12-14T10:55:07;32.47;;;10.70;;
4148;SDS011;2088;51.032;7.082;2023-12-14T10:57:36;44.40;;;14.00;;
4148;SDS011;2088;51.032;7.082;2023-12-14T11:00:05;29.60;;;13.10;;
4148;SDS011;2088;51.032;7.082;2023-12-14T11:02:39;49.50;;;14.30;;
4148;SDS011;2088;51.032;7.082;2023-12-14T11:05:08;46.50;;;12.67;;
4148;SDS011;2088;51.032;7.082;2023-12-14T11:07:43;48.43;;;16.37;;
4148;SDS011;2088;51.032;7.082;2023-12-14T11:10:10;34.90;;;11.27;;
4148;SDS011;2088;51.032;7.082;2023-12-14T11:12:39;44.43;;;15.30;;
4148;SDS011;2088;51.032;7.082;2023-12-14T11:15:17;41.60;;;14.27;;
4148;SDS011;2088;51.032;7.082;2023-12-14T11:17:53;47.40;;;17.10;;
4148;SDS011;2088;51.032;7.082;2023-12-14T11:20:47;32.60;;;11.60;;
4148;SDS011;2088;51.032;7.082;2023-12-14T11:23:14;49.23;;;14.83;;
4148;SDS011;2088;51.032;7.082;2023-12-14T11:25:42;26.77;;;10.57;;
4148;SDS011;2088;51.032;7.082;2023-12-14T11:28:10;35.70;;;12.47;;
4148;SDS011;2088;51.032;7.082;2023-12-14T11:30:38;36.57;;;12.60;;
4148;SDS011;2088;51.032;7.082;2023-12-14T11:33:05;31.20;;;11.77;;
4148;SDS011;2088;51.032;7.082;2023-12-14T11:35:32;27.00;;;10.40;;
4148;SDS011;2088;51.032;7.082;2023-12-14T11:37:59;27.40;;;10.33;;
4148;SDS011;2088;51.032;7.082;2023-12-14T11:40:27;33.50;;;10.00;;
4148;SDS011;2088;51.032;7.082;2023-12-14T11:42:58;32.67;;;11.47;;
4148;SDS011;2088;51.032;7.082;2023-12-14T11:45:27;32.10;;;11.23;;
4148;SDS011;2088;51.032;7.082;2023-12-14T11:47:54;32.00;;;9.80;;
4148;SDS011;2088;51.032;7.082;2023-12-14T11:50:21;25.07;;;9.63;;
4148;SDS011;2088;51.032;7.082;2023-12-14T11:52:48;25.87;;;10.03;;
4148;SDS011;2088;51.032;7.082;2023-12-14T11:55:16;32.77;;;12.47;;
4148;SDS011;2088;51.032;7.082;2023-12-14T11:57:45;24.00;;;10.70;;
4148;SDS011;2088;51.032;7.082;2023-12-14T12:00:13;34.47;;;9.77;;
4148;SDS011;2088;51.032;7.082;2023-12-14T12:02:41;30.43;;;11.10;;
4148;SDS011;2088;51.032;7.082;2023-12-14T12:05:08;25.40;;;11.37;;
4148;SDS011;2088;51.032;7.082;2023-12-14T12:07:38;31.63;;;10.43;;
4148;SDS011;2088;51.032;7.082;2023-12-14T12:10:08;34.50;;;11.20;;
4148;SDS011;2088;51.032;7.082;2023-12-14T12:12:36;38.53;;;12.73;;
4148;SDS011;2088;51.032;7.082;2023-12-14T12:15:03;28.40;;;10.53;;
4148;SDS011;2088;51.032;7.082;2023-12-14T12:17:31;30.97;;;10.73;;
4148;SDS011;2088;51.032;7.082;2023-12-14T12:20:03;29.53;;;12.27;;
4148;SDS011;2088;51.032;7.082;2023-12-14T12:22:31;29.77;;;10.97;;
4148;SDS011;2088;51.032;7.082;2023-12-14T12:24:58;35.63;;;11.90;;
4148;SDS011;2088;51.032;7.082;2023-12-14T12:27:25;31.00;;;10.70;;
4148;SDS011;2088;51.032;7.082;2023-12-14T12:29:53;23.13;;;10.53;;
4148;SDS011;2088;51.032;7.082;2023-12-14T12:32:20;35.20;;;10.70;;
4148;SDS011;2088;51.032;7.082;2023-12-14T12:34:47;34.93;;;11.23;;
4148;SDS011;2088;51.032;7.082;2023-12-14T12:37:15;27.20;;;9.97;;
4148;SDS011;2088;51.032;7.082;2023-12-14T12:39:42;28.87;;;10.47;;
4148;SDS011;2088;51.032;7.082;2023-12-14T12:42:09;27.37;;;12.50;;
4148;SDS011;2088;51.032;7.082;2023-12-14T12:44:36;27.77;;;11.50;;
4148;SDS011;2088;51.032;7.082;2023-12-14T12:47:03;28.07;;;12.57;;
4148;SDS011;2088;51.032;7.082;2023-12-14T12:49:30;25.80;;;9.73;;
4148;SDS011;2088;51.032;7.082;2023-12-14T12:51:57;27.40;;;10.20;;
4148;SDS011;2088;51.032;7.082;2023-12-14T12:54:26;29.60;;;10.00;;
4148;SDS011;2088;51.032;7.082;2023-12-14T12:56:53;25.03;;;9.93;;
4148;SDS011;2088;51.032;7.082;2023-12-14T12:59:20;23.37;;;11.17;;
4148;SDS011;2088;51.032;7.082;2023-12-14T13:01:48;29.00;;;11.17;;
4148;SDS011;2088;51.032;7.082;2023-12-14T13:04:18;27.70;;;10.80;;
4148;SDS011;2088;51.032;7.082;2023-12-14T13:06:45;28.73;;;10.77;;
4148;SDS011;2088;51.032;7.082;2023-12-14T13:09:13;26.90;;;9.53;;
4148;SDS011;2088;51.032;7.082;2023-12-14T13:11:41;22.97;;;8.50;;
4148;SDS011;2088;51.032;7.082;2023-12-14T13:14:08;25.00;;;9.80;;
4148;SDS011;2088;51.032;7.082;2023-12-14T13:16:35;22.03;;;9.30;;
4148;SDS011;2088;51.032;7.082;2023-12-14T13:19:03;25.87;;;9.67;;
4148;SDS011;2088;51.032;7.082;2023-12-14T13:21:31;21.93;;;8.50;;
4148;SDS011;2088;51.032;7.082;2023-12-14T13:23:59;22.93;;;8.97;;
4148;SDS011;2088;51.032;7.082;2023-12-14T13:26:26;25.37;;;9.43;;
4148;SDS011;2088;51.032;7.082;2023-12-14T13:28:55;24.00;;;10.77;;
4148;SDS011;2088;51.032;7.082;2023-12-14T13:31:22;23.47;;;9.97;;
4148;SDS011;2088;51.032;7.082;2023-12-14T13:33:49;19.73;;;7.27;;
4148;SDS011;2088;51.032;7.082;2023-12-14T13:36:17;14.67;;;7.20;;
4148;SDS011;2088;51.032;7.082;2023-12-14T13:38:44;15.77;;;6.73;;
4148;SDS011;2088;51.032;7.082;2023-12-14T13:41:12;11.50;;;6.47;;
4148;SDS011;2088;51.032;7.082;2023-12-14T13:43:39;10.93;;;5.60;;
4148;SDS011;2088;51.032;7.082;2023-12-14T13:46:07;13.17;;;5.20;;
4148;SDS011;2088;51.032;7.082;2023-12-14T13:48:34;15.07;;;6.17;;
4148;SDS011;2088;51.032;7.082;2023-12-14T13:51:01;10.60;;;5.60;;
4148;SDS011;2088;51.032;7.082;2023-12-14T13:53:28;11.63;;;5.80;;
4148;SDS011;2088;51.032;7.082;2023-12-14T13:55:55;14.57;;;6.97;;
4148;SDS011;2088;51.032;7.082;2023-12-14T13:58:23;8.03;;;5.40;;
4148;SDS011;2088;51.032;7.082;2023-12-14T14:00:50;12.50;;;5.53;;
4148;SDS011;2088;51.032;7.082;2023-12-14T14:03:18;25.63;;;6.07;;
4148;SDS011;2088;51.032;7.082;2023-12-14T14:05:45;10.27;;;5.23;;
4148;SDS011;2088;51.032;7.082;2023-12-14T14:08:12;10.57;;;5.03;;
4148;SDS011;2088;51.032;7.082;2023-12-14T14:10:39;9.50;;;5.40;;
4148;SDS011;2088;51.032;7.082;2023-12-14T14:13:06;10.27;;;5.33;;
4148;SDS011;2088;51.032;7.082;2023-12-14T14:15:33;11.40;;;5.80;;
4148;SDS011;2088;51.032;7.082;2023-12-14T14:18:00;10.23;;;5.20;;
4148;SDS011;2088;51.032;7.082;2023-12-14T14:20:29;9.97;;;4.70;;
4148;SDS011;2088;51.032;7.082;2023-12-14T14:22:56;11.03;;;5.47;;
4148;SDS011;2088;51.032;7.082;2023-12-14T14:25:24;11.07;;;5.00;;
4148;SDS011;2088;51.032;7.082;2023-12-14T14:27:51;16.77;;;4.70;;
4148;SDS011;2088;51.032;7.082;2023-12-14T14:30:18;12.33;;;3.90;;
4148;SDS011;2088;51.032;7.082;2023-12-14T14:32:45;10.63;;;4.90;;
4148;SDS011;2088;51.032;7.082;2023-12-14T14:35:12;7.50;;;3.87;;
4148;SDS011;2088;51.032;7.082;2023-12-14T14:37:41;11.83;;;5.47;;
4148;SDS011;2088;51.032;7.082;2023-12-14T14:40:10;15.67;;;4.70;;
4148;SDS011;2088;51.032;7.082;2023-12-14T14:42:38;12.40;;;4.60;;
4148;SDS011;2088;51.032;7.082;2023-12-14T14:45:05;8.40;;;4.23;;
4148;SDS011;2088;51.032;7.082;2023-12-14T14:47:33;10.60;;;3.50;;
4148;SDS011;2088;51.032;7.082;2023-12-14T14:50:00;9.63;;;4.70;;
4148;SDS011;2088;51.032;7.082;2023-12-14T14:52:29;7.70;;;4.23;;
4148;SDS011;2088;51.032;7.082;2023-12-14T14:54:57;9.97;;;4.00;;
4148;SDS011;2088;51.032;7.082;2023-12-14T14:57:24;16.43;;;4.30;;
4148;SDS011;2088;51.032;7.082;2023-12-14T14:59:52;7.33;;;4.07;;